首页
METAR-TAF:

METAR-TAF

机场 :

英迪拉·甘地国际机场

新德里, 印度

纬度: 28-34N, 经度: 077-07E, 海拔: 220米

当前天气观测

该预报发布于38分钟前的14:00 UTC
风速3节,风向东北
温度 26°C
湿度 39%
气压 1013 hPa
能見度: 3500

METAR: VIDP 231400Z 04003KT 3500 HZ NSC 26/11 Q1013 NOSIG

时间: 20:08 (14:38 UTC)

预报

该预报发布于3小时和38分钟前的11:00 UTC
预报有效从23日的 12点(UTC)到 24日的 18点(UTC)
风速6节,风向西转西北
能見度: 4000
成为
从 23日的 15点(UTC)到 23日的 17点(UTC)
风速节,风向
能見度: 3000
成为
从 23日的 23点(UTC)到 23日的 24点(UTC)
能見度: 1500
少量云层高于10000英尺
轻雾
成为
从 24日的 05点(UTC)到 24日的 07点(UTC)
风速6节,风向西
能見度: 4000
成为
从 24日的 15点(UTC)到 24日的 17点(UTC)
风速节,风向
能見度: 3000

TAF: VIDP 231100Z 2312/2418 29006KT 4000 HZ NSC BECMG 2315/2317 00000KT 3000 HZ BECMG 2323/2324 1500 BR FEW100 BECMG 2405/2407 27006KT 4000 HZ NSC BECMG 2415/2417 00000KT 3000 HZ

超过4000个机场的气象观测和天气预报(METAR&TAF报告)。

可查询的气象台以黄色和红色小点在地图上表示。

将鼠标移到小点上方,可查看气象台名称。

然后点击查看天气观测和预报。

如需切换地图:点击带黑十字的绿色按钮放大地图;点击带横线的绿色按钮缩小地图;或者点击绿色箭头查看邻近地区的地图。


METAR-TAF: